Time;durP1;ratioP1;P1;durP2;ratioP2;P2;SDS_P1;SDS_P2;PMS_P1;PMS_P2;Temp;Humidity;BMP_temperature;BMP_pressure;BME280_temperature;BME280_humidity;BME280_pressure;Samples;Min_cycle;Max_cycle;Signal;HPM_P1;HPM_P2
2022/10/09 00:01:02;;;;;;;22.75;15.48;;;;;;;;;;12969442;22;20398;-90
2022/10/09 00:06:08;;;;;;;21.00;15.38;;;;;;;;;;12970772;22;20366;-89
2022/10/09 00:11:11;;;;;;;20.75;15.88;;;;;;;;;;12970755;22;20723;-89
2022/10/09 00:16:15;;;;;;;20.65;15.35;;;;;;;;;;12985911;22;20378;-90
2022/10/09 00:21:22;;;;;;;19.50;15.50;;;;;;;;;;13004180;22;20363;-88
2022/10/09 00:26:25;;;;;;;22.40;15.40;;;;;;;;;;12974815;22;20362;-90
2022/10/09 00:31:27;;;;;;;18.00;15.60;;;;;;;;;;12968424;22;20888;-89
2022/10/09 00:36:31;;;;;;;22.08;17.35;;;;;;;;;;12968594;22;20398;-88
2022/10/09 00:41:34;;;;;;;22.88;17.60;;;;;;;;;;12968561;22;20755;-90
2022/10/09 00:46:42;;;;;;;21.23;16.73;;;;;;;;;;12941693;22;20429;-89
2022/10/09 00:51:47;;;;;;;22.93;17.60;;;;;;;;;;12968577;22;20378;-89
2022/10/09 00:56:50;;;;;;;21.40;16.92;;;;;;;;;;12965907;22;20854;-89
2022/10/09 01:01:51;;;;;;;22.48;17.23;;;;;;;;;;12969491;22;20747;-89
2022/10/09 01:07:09;;;;;;;24.30;18.48;;;;;;;;;;12969249;22;20375;-89
2022/10/09 01:12:19;;;;;;;23.35;18.05;;;;;;;;;;12969083;22;20873;-89
2022/10/09 01:17:28;;;;;;;22.67;17.77;;;;;;;;;;12969502;22;20363;-89
2022/10/09 01:22:44;;;;;;;24.83;18.17;;;;;;;;;;12972098;22;20409;-90
2022/10/09 01:27:47;;;;;;;24.05;18.10;;;;;;;;;;12971885;22;20420;-89
2022/10/09 01:32:52;;;;;;;26.13;19.88;;;;;;;;;;12971944;22;20397;-89
2022/10/09 01:37:55;;;;;;;25.55;18.55;;;;;;;;;;12973446;22;20377;-88
2022/10/09 01:42:59;;;;;;;23.42;18.13;;;;;;;;;;12973273;22;20469;-89
2022/10/09 01:48:02;;;;;;;29.77;19.00;;;;;;;;;;12972378;22;20494;-88
2022/10/09 01:53:07;;;;;;;24.65;17.83;;;;;;;;;;12971600;22;20476;-89
2022/10/09 01:58:18;;;;;;;23.83;17.73;;;;;;;;;;12973268;22;20382;-87
2022/10/09 02:03:20;;;;;;;26.10;18.30;;;;;;;;;;12971676;22;20393;-89
2022/10/09 02:08:24;;;;;;;25.25;17.35;;;;;;;;;;12969485;22;20413;-90
2022/10/09 02:13:28;;;;;;;22.48;17.92;;;;;;;;;;12968028;22;20454;-89
2022/10/09 02:18:36;;;;;;;23.10;17.43;;;;;;;;;;12968280;22;20873;-90
2022/10/09 02:23:41;;;;;;;24.13;18.07;;;;;;;;;;12968487;22;20394;-89
2022/10/09 02:28:44;;;;;;;22.93;16.80;;;;;;;;;;12970706;22;20866;-90
2022/10/09 02:33:47;;;;;;;21.57;16.93;;;;;;;;;;12971467;22;20487;-89
2022/10/09 02:38:49;;;;;;;21.98;16.35;;;;;;;;;;12970713;22;20454;-90
2022/10/09 02:43:52;;;;;;;21.73;16.38;;;;;;;;;;12969855;22;20473;-90
2022/10/09 02:48:54;;;;;;;22.73;16.57;;;;;;;;;;12970269;22;20497;-89
2022/10/09 02:53:58;;;;;;;24.73;16.87;;;;;;;;;;12970060;22;20437;-90
2022/10/09 02:59:01;;;;;;;20.50;16.03;;;;;;;;;;12969458;22;20370;-90
2022/10/09 03:04:04;;;;;;;21.85;16.30;;;;;;;;;;12970655;22;20366;-89
2022/10/09 03:09:05;;;;;;;22.67;16.55;;;;;;;;;;12969663;22;20465;-91
2022/10/09 03:14:09;;;;;;;20.85;15.50;;;;;;;;;;12970208;22;20363;-90
2022/10/09 03:19:11;;;;;;;20.55;15.40;;;;;;;;;;12970002;22;20390;-90
2022/10/09 03:24:13;;;;;;;19.50;15.48;;;;;;;;;;12969611;22;20358;-89
2022/10/09 03:29:16;;;;;;;19.83;14.70;;;;;;;;;;12969917;22;20437;-90
2022/10/09 03:34:18;;;;;;;20.88;15.15;;;;;;;;;;12969509;22;20389;-90
2022/10/09 03:39:19;;;;;;;20.25;14.70;;;;;;;;;;12968279;22;20369;-87
2022/10/09 03:44:23;;;;;;;19.70;15.93;;;;;;;;;;12969460;22;20389;-89
2022/10/09 03:49:25;;;;;;;20.90;14.77;;;;;;;;;;12969150;22;20383;-90
2022/10/09 03:54:26;;;;;;;17.63;14.27;;;;;;;;;;12968208;22;20815;-90
2022/10/09 03:59:30;;;;;;;17.63;13.80;;;;;;;;;;12966558;22;20397;-89
2022/10/09 04:04:31;;;;;;;15.30;13.63;;;;;;;;;;12967611;22;20441;-89
2022/10/09 04:09:33;;;;;;;15.73;13.40;;;;;;;;;;12967633;22;20492;-90
2022/10/09 04:14:37;;;;;;;14.80;11.97;;;;;;;;;;12968593;22;20430;-89
2022/10/09 04:19:39;;;;;;;17.23;12.93;;;;;;;;;;12967631;22;20359;-89
2022/10/09 04:24:40;;;;;;;16.50;12.90;;;;;;;;;;12965348;22;20385;-89
2022/10/09 04:29:44;;;;;;;15.65;13.50;;;;;;;;;;12965467;22;20413;-87
2022/10/09 04:34:45;;;;;;;19.63;14.27;;;;;;;;;;12967946;22;20385;-90
2022/10/09 04:39:47;;;;;;;19.75;13.93;;;;;;;;;;12969181;22;20378;-89
2022/10/09 04:44:51;;;;;;;19.02;14.40;;;;;;;;;;12967987;22;20355;-90
2022/10/09 04:49:52;;;;;;;22.02;15.50;;;;;;;;;;12967700;22;20374;-89
2022/10/09 04:54:54;;;;;;;21.23;15.20;;;;;;;;;;12968746;22;20366;-90
2022/10/09 04:59:57;;;;;;;16.27;14.30;;;;;;;;;;12967459;22;20390;-90
2022/10/09 05:04:59;;;;;;;20.90;14.93;;;;;;;;;;12968362;22;20362;-89
2022/10/09 05:10:01;;;;;;;19.48;14.73;;;;;;;;;;12969187;22;20413;-89
2022/10/09 05:15:05;;;;;;;16.85;13.55;;;;;;;;;;12971667;22;20359;-89
2022/10/09 05:20:08;;;;;;;15.02;12.52;;;;;;;;;;12972955;22;20354;-89
2022/10/09 05:25:10;;;;;;;17.33;12.07;;;;;;;;;;12972664;22;20389;-87
2022/10/09 05:30:13;;;;;;;15.30;11.93;;;;;;;;;;12971461;22;20521;-89
2022/10/09 05:35:15;;;;;;;14.82;12.55;;;;;;;;;;12972298;22;20382;-90
2022/10/09 05:40:17;;;;;;;13.53;10.80;;;;;;;;;;12971752;22;20354;-87
2022/10/09 05:45:20;;;;;;;13.68;9.98;;;;;;;;;;12970983;22;20394;-90
2022/10/09 05:50:22;;;;;;;13.07;9.77;;;;;;;;;;12970702;22;20389;-89
2022/10/09 05:55:25;;;;;;;14.03;10.10;;;;;;;;;;12971903;22;20393;-90
2022/10/09 06:00:29;;;;;;;14.23;10.32;;;;;;;;;;12971112;22;20750;-89
2022/10/09 06:05:31;;;;;;;13.97;10.67;;;;;;;;;;12971306;22;20878;-90
2022/10/09 06:10:33;;;;;;;12.23;9.70;;;;;;;;;;12970747;22;20416;-90
2022/10/09 06:15:36;;;;;;;13.52;9.73;;;;;;;;;;12970558;22;20680;-89
2022/10/09 06:20:38;;;;;;;11.80;9.73;;;;;;;;;;12970560;22;20397;-90
2022/10/09 06:25:39;;;;;;;11.23;9.53;;;;;;;;;;12969812;22;20366;-89
2022/10/09 06:30:42;;;;;;;12.95;10.02;;;;;;;;;;12970399;22;20704;-90
2022/10/09 06:35:44;;;;;;;11.60;9.38;;;;;;;;;;12970142;22;20358;-90
2022/10/09 06:40:46;;;;;;;11.70;8.20;;;;;;;;;;12970728;22;20366;-90
2022/10/09 06:45:49;;;;;;;10.38;6.97;;;;;;;;;;12970745;22;20366;-90
2022/10/09 06:50:51;;;;;;;7.97;5.75;;;;;;;;;;12971356;22;20386;-89
2022/10/09 06:55:54;;;;;;;7.47;5.07;;;;;;;;;;12970567;22;20358;-90
2022/10/09 07:01:06;;;;;;;7.88;4.65;;;;;;;;;;12970022;22;20359;-90
2022/10/09 07:06:10;;;;;;;6.57;4.53;;;;;;;;;;12971116;22;20857;-90
2022/10/09 07:11:14;;;;;;;9.85;5.05;;;;;;;;;;12975772;22;20414;-90
2022/10/09 07:16:22;;;;;;;9.75;4.80;;;;;;;;;;12979389;22;20359;-90
2022/10/09 07:21:24;;;;;;;6.65;4.50;;;;;;;;;;12973149;22;20387;-90
2022/10/09 07:26:28;;;;;;;9.32;4.85;;;;;;;;;;12971626;22;20390;-90
2022/10/09 07:31:31;;;;;;;7.13;4.77;;;;;;;;;;12973264;22;20385;-91
2022/10/09 07:36:33;;;;;;;6.55;4.25;;;;;;;;;;12971505;22;20374;-90
2022/10/09 07:41:35;;;;;;;6.43;4.10;;;;;;;;;;12972694;22;20501;-90
2022/10/09 07:46:38;;;;;;;6.97;4.82;;;;;;;;;;12974084;22;20374;-89
2022/10/09 07:51:40;;;;;;;7.38;4.50;;;;;;;;;;12973710;22;20383;-89
2022/10/09 07:56:42;;;;;;;8.97;4.87;;;;;;;;;;12971308;22;20382;-88
2022/10/09 08:01:45;;;;;;;7.17;4.60;;;;;;;;;;12969716;22;20368;-88
2022/10/09 08:06:48;;;;;;;6.45;4.75;;;;;;;;;;12971164;22;20362;-88
2022/10/09 08:11:50;;;;;;;7.93;4.80;;;;;;;;;;12968724;22;20382;-88
2022/10/09 08:16:53;;;;;;;9.60;5.20;;;;;;;;;;12969597;22;20717;-87
2022/10/09 08:21:55;;;;;;;6.83;4.90;;;;;;;;;;12969688;22;20370;-88
2022/10/09 08:26:57;;;;;;;7.87;4.90;;;;;;;;;;12971089;22;20362;-88
2022/10/09 08:32:00;;;;;;;7.77;4.93;;;;;;;;;;12972094;22;20787;-87
2022/10/09 08:37:01;;;;;;;7.13;4.72;;;;;;;;;;12971035;22;20364;-88
2022/10/09 08:42:04;;;;;;;7.50;4.78;;;;;;;;;;12969376;22;20770;-88
2022/10/09 08:47:15;;;;;;;8.07;5.20;;;;;;;;;;12969867;22;20366;-88
2022/10/09 08:52:24;;;;;;;6.35;4.82;;;;;;;;;;12970786;22;20706;-88
2022/10/09 08:57:31;;;;;;;10.67;5.93;;;;;;;;;;12967539;22;20422;-89
2022/10/09 09:02:50;;;;;;;6.75;4.28;;;;;;;;;;12967420;22;20449;-89
2022/10/09 09:07:57;;;;;;;7.43;4.55;;;;;;;;;;12969058;22;20366;-89
2022/10/09 09:13:15;;;;;;;7.32;4.55;;;;;;;;;;12968771;22;20410;-88
2022/10/09 09:18:35;;;;;;;7.87;4.87;;;;;;;;;;12967961;22;20358;-88
2022/10/09 09:23:40;;;;;;;6.18;4.32;;;;;;;;;;12965455;22;20814;-89
2022/10/09 09:28:44;;;;;;;6.95;4.40;;;;;;;;;;12967272;22;20405;-89
2022/10/09 09:33:55;;;;;;;6.23;4.37;;;;;;;;;;12964415;22;20668;-89
2022/10/09 09:38:57;;;;;;;7.47;4.30;;;;;;;;;;12966259;22;20402;-91
2022/10/09 09:43:59;;;;;;;6.40;4.13;;;;;;;;;;12963797;22;20373;-90
2022/10/09 09:49:02;;;;;;;6.82;4.35;;;;;;;;;;12964237;22;20414;-89
2022/10/09 09:54:07;;;;;;;6.63;4.60;;;;;;;;;;12966069;22;20386;-89
2022/10/09 09:59:27;;;;;;;7.50;3.92;;;;;;;;;;12967106;22;20453;-89
2022/10/09 10:04:30;;;;;;;5.63;4.37;;;;;;;;;;12973043;22;20848;-90
2022/10/09 10:09:32;;;;;;;6.97;4.20;;;;;;;;;;12969213;22;20409;-92
2022/10/09 10:14:35;;;;;;;6.55;4.53;;;;;;;;;;12965560;22;20374;-91
2022/10/09 10:19:38;;;;;;;5.30;4.28;;;;;;;;;;12969002;22;20449;-92
2022/10/09 10:24:47;;;;;;;5.50;4.03;;;;;;;;;;12975202;22;20382;-89
2022/10/09 10:29:52;;;;;;;11.13;4.60;;;;;;;;;;12962626;22;20394;-90
2022/10/09 10:35:02;;;;;;;8.65;4.63;;;;;;;;;;12957174;22;20410;-91
2022/10/09 10:40:13;;;;;;;7.47;3.97;;;;;;;;;;12953888;22;20462;-90
2022/10/09 10:45:19;;;;;;;5.97;4.15;;;;;;;;;;12956239;22;20393;-91
2022/10/09 10:50:24;;;;;;;6.22;4.30;;;;;;;;;;12956676;22;21099;-91
2022/10/09 10:55:36;;;;;;;9.30;3.97;;;;;;;;;;12960914;22;20409;-92
2022/10/09 11:00:43;;;;;;;6.40;4.53;;;;;;;;;;12954671;22;20382;-92
2022/10/09 11:05:53;;;;;;;5.40;4.22;;;;;;;;;;12957461;22;20421;-91
2022/10/09 11:11:02;;;;;;;6.18;4.28;;;;;;;;;;12963331;22;20490;-91
2022/10/09 11:16:16;;;;;;;9.00;4.10;;;;;;;;;;12968470;22;20398;-90
2022/10/09 11:21:31;;;;;;;9.15;4.13;;;;;;;;;;12965869;22;20398;-92
2022/10/09 11:26:43;;;;;;;4.60;3.70;;;;;;;;;;12964359;22;20363;-90
2022/10/09 11:31:51;;;;;;;8.07;4.63;;;;;;;;;;12963912;22;20395;-90
2022/10/09 11:36:56;;;;;;;5.03;4.32;;;;;;;;;;12964072;22;20371;-90
2022/10/09 11:41:59;;;;;;;6.00;4.53;;;;;;;;;;12950821;22;20503;-87
2022/10/09 11:47:09;;;;;;;5.32;4.45;;;;;;;;;;12958718;22;20457;-88
2022/10/09 11:52:20;;;;;;;7.40;4.77;;;;;;;;;;12955853;22;20748;-89
2022/10/09 11:57:29;;;;;;;6.80;4.35;;;;;;;;;;12954955;22;20747;-89
2022/10/09 12:02:31;;;;;;;7.43;4.47;;;;;;;;;;12893238;23;20411;-88
2022/10/09 12:07:37;;;;;;;8.30;5.10;;;;;;;;;;12893484;23;20507;-89
2022/10/09 12:12:47;;;;;;;5.93;4.60;;;;;;;;;;12892776;23;20721;-90
2022/10/09 12:17:49;;;;;;;8.05;4.50;;;;;;;;;;12889440;23;20368;-88
2022/10/09 12:22:55;;;;;;;6.40;4.13;;;;;;;;;;12894231;23;20375;-89
2022/10/09 12:27:59;;;;;;;5.78;4.20;;;;;;;;;;12891873;23;21227;-87
2022/10/09 12:33:07;;;;;;;7.35;4.30;;;;;;;;;;12892567;22;20474;-87
2022/10/09 12:38:17;;;;;;;6.38;3.97;;;;;;;;;;12897680;23;20388;-87
2022/10/09 12:43:22;;;;;;;7.50;4.30;;;;;;;;;;12895938;23;20915;-87
2022/10/09 12:48:27;;;;;;;12.20;5.17;;;;;;;;;;12898905;23;20490;-88
2022/10/09 12:53:30;;;;;;;6.80;4.30;;;;;;;;;;12901963;22;20384;-87
2022/10/09 12:58:35;;;;;;;7.15;4.35;;;;;;;;;;12915647;22;20389;-87
2022/10/09 13:03:38;;;;;;;5.00;4.37;;;;;;;;;;12965386;22;20734;-87
2022/10/09 13:08:43;;;;;;;6.47;3.60;;;;;;;;;;12967183;22;20358;-87
2022/10/09 13:13:49;;;;;;;5.30;4.05;;;;;;;;;;12967982;22;20406;-89
2022/10/09 13:18:57;;;;;;;6.63;3.90;;;;;;;;;;12976394;22;20374;-89
2022/10/09 13:24:09;;;;;;;6.15;4.10;;;;;;;;;;12971018;22;20684;-89
2022/10/09 13:29:13;;;;;;;6.00;4.00;;;;;;;;;;12971076;22;20381;-90
2022/10/09 13:34:15;;;;;;;5.72;3.92;;;;;;;;;;12972771;22;20354;-89
2022/10/09 13:39:18;;;;;;;7.77;4.33;;;;;;;;;;12977496;22;20441;-89
2022/10/09 13:44:20;;;;;;;7.67;3.97;;;;;;;;;;12980418;22;20358;-90
2022/10/09 13:49:22;;;;;;;6.03;4.07;;;;;;;;;;12979827;22;20370;-90
2022/10/09 13:54:25;;;;;;;6.75;4.25;;;;;;;;;;12978471;22;20365;-90
2022/10/09 13:59:30;;;;;;;7.25;4.20;;;;;;;;;;12976292;22;20398;-90
2022/10/09 14:04:31;;;;;;;6.15;3.90;;;;;;;;;;12975737;22;20374;-89
2022/10/09 14:09:35;;;;;;;4.50;3.78;;;;;;;;;;12976229;22;20367;-87
2022/10/09 14:14:37;;;;;;;7.60;3.67;;;;;;;;;;12975578;22;20417;-88
2022/10/09 14:19:38;;;;;;;6.25;4.25;;;;;;;;;;12983280;22;20917;-88
2022/10/09 14:24:42;;;;;;;6.97;4.50;;;;;;;;;;12979478;22;20432;-88
2022/10/09 14:29:44;;;;;;;5.03;4.00;;;;;;;;;;12978662;22;20402;-88
2022/10/09 14:34:46;;;;;;;7.63;4.43;;;;;;;;;;12976305;22;20355;-88
2022/10/09 14:39:50;;;;;;;9.80;4.43;;;;;;;;;;12975050;22;20416;-89
2022/10/09 14:44:53;;;;;;;7.78;3.90;;;;;;;;;;12974356;22;20354;-87
2022/10/09 14:49:55;;;;;;;6.63;4.10;;;;;;;;;;12968845;22;20471;-86
2022/10/09 14:54:59;;;;;;;8.15;4.15;;;;;;;;;;12970222;22;20873;-88
2022/10/09 15:00:00;;;;;;;6.45;4.20;;;;;;;;;;12973525;22;20366;-88
2022/10/09 15:05:05;;;;;;;6.80;4.00;;;;;;;;;;12971860;22;20457;-88
2022/10/09 15:10:09;;;;;;;5.65;3.90;;;;;;;;;;12970503;22;20794;-89
2022/10/09 15:15:11;;;;;;;6.07;3.85;;;;;;;;;;12972177;22;20394;-89
2022/10/09 15:20:13;;;;;;;8.07;4.20;;;;;;;;;;12971261;22;20467;-89
2022/10/09 15:25:16;;;;;;;8.07;4.00;;;;;;;;;;12961735;22;20371;-88
2022/10/09 15:30:18;;;;;;;5.15;3.75;;;;;;;;;;12966102;22;20444;-89
2022/10/09 15:35:20;;;;;;;6.07;3.80;;;;;;;;;;12967838;22;20406;-89
2022/10/09 15:40:23;;;;;;;6.60;3.45;;;;;;;;;;12967900;22;20402;-89
2022/10/09 15:45:25;;;;;;;6.72;3.40;;;;;;;;;;12968531;22;20436;-90
2022/10/09 15:50:27;;;;;;;4.75;3.20;;;;;;;;;;12966687;22;20402;-89
2022/10/09 15:55:30;;;;;;;6.30;3.63;;;;;;;;;;12964857;22;20389;-88
2022/10/09 16:00:35;;;;;;;9.18;4.00;;;;;;;;;;12967229;22;20390;-90
2022/10/09 16:05:38;;;;;;;10.07;4.10;;;;;;;;;;12962557;22;20362;-85
2022/10/09 16:10:43;;;;;;;5.47;3.38;;;;;;;;;;12964486;22;20474;-87
2022/10/09 16:15:47;;;;;;;7.83;3.90;;;;;;;;;;12966972;22;20405;-87
2022/10/09 16:20:50;;;;;;;5.30;3.30;;;;;;;;;;12961345;22;20436;-86
2022/10/09 16:25:59;;;;;;;7.72;4.05;;;;;;;;;;12965809;22;20366;-87
2022/10/09 16:31:01;;;;;;;8.57;3.60;;;;;;;;;;12965594;22;20420;-89
2022/10/09 16:36:10;;;;;;;4.40;3.30;;;;;;;;;;12965556;22;20366;-86
2022/10/09 16:41:16;;;;;;;5.47;3.30;;;;;;;;;;12966306;22;20782;-87
2022/10/09 16:46:20;;;;;;;5.80;3.47;;;;;;;;;;12966108;22;20406;-88
2022/10/09 16:51:25;;;;;;;5.75;3.35;;;;;;;;;;12965707;22;20406;-87
2022/10/09 16:56:32;;;;;;;7.00;3.88;;;;;;;;;;12959439;22;20414;-89
2022/10/09 17:01:36;;;;;;;4.93;3.60;;;;;;;;;;12962376;22;20406;-88
2022/10/09 17:06:40;;;;;;;4.93;4.23;;;;;;;;;;12962336;22;20383;-85
2022/10/09 17:11:44;;;;;;;7.70;4.00;;;;;;;;;;12964504;22;20386;-87
2022/10/09 17:16:46;;;;;;;6.88;4.30;;;;;;;;;;12961416;22;20366;-88
2022/10/09 17:21:48;;;;;;;8.85;4.95;;;;;;;;;;12964150;22;20402;-87
2022/10/09 17:26:51;;;;;;;8.00;4.38;;;;;;;;;;12965847;22;20405;-87
2022/10/09 17:31:53;;;;;;;9.68;4.60;;;;;;;;;;12969169;22;20457;-88
2022/10/09 17:36:55;;;;;;;8.07;5.60;;;;;;;;;;12967385;22;20453;-87
2022/10/09 17:41:58;;;;;;;7.63;5.40;;;;;;;;;;12962971;22;20382;-87
2022/10/09 17:47:00;;;;;;;7.07;5.35;;;;;;;;;;12964934;22;20371;-88
2022/10/09 17:52:02;;;;;;;7.47;4.88;;;;;;;;;;12966223;22;20386;-88
2022/10/09 17:57:10;;;;;;;5.93;4.40;;;;;;;;;;12960209;22;20707;-88
2022/10/09 18:02:12;;;;;;;7.13;4.30;;;;;;;;;;12962937;22;20374;-87
2022/10/09 18:07:18;;;;;;;8.75;5.40;;;;;;;;;;12962802;22;20381;-87
2022/10/09 18:12:21;;;;;;;8.13;4.73;;;;;;;;;;12964695;22;20386;-89
2022/10/09 18:17:23;;;;;;;8.50;4.78;;;;;;;;;;12971565;22;20437;-87
2022/10/09 18:22:25;;;;;;;7.75;4.88;;;;;;;;;;12973289;22;20370;-87
2022/10/09 18:27:28;;;;;;;8.67;4.63;;;;;;;;;;12975377;22;20457;-87
2022/10/09 18:32:30;;;;;;;6.55;4.68;;;;;;;;;;12974446;22;20385;-88
2022/10/09 18:37:33;;;;;;;7.63;4.80;;;;;;;;;;12972420;22;20390;-87
2022/10/09 18:42:36;;;;;;;11.85;5.10;;;;;;;;;;12962638;22;20397;-87
2022/10/09 18:47:39;;;;;;;9.70;4.80;;;;;;;;;;12966323;22;20674;-84
2022/10/09 18:52:42;;;;;;;6.67;4.70;;;;;;;;;;12969064;22;20764;-88
2022/10/09 18:57:46;;;;;;;8.35;4.28;;;;;;;;;;12970610;22;20405;-88
2022/10/09 19:02:48;;;;;;;6.93;4.18;;;;;;;;;;12969601;22;20390;-88
2022/10/09 19:07:50;;;;;;;8.55;4.55;;;;;;;;;;12969969;22;20417;-88
2022/10/09 19:12:54;;;;;;;6.65;3.97;;;;;;;;;;12944795;22;20389;-89
2022/10/09 19:17:55;;;;;;;6.25;4.40;;;;;;;;;;12975706;22;20433;-88
2022/10/09 19:22:57;;;;;;;6.88;4.05;;;;;;;;;;12990884;22;20882;-88
2022/10/09 19:28:00;;;;;;;5.80;4.22;;;;;;;;;;12982636;22;20366;-87
2022/10/09 19:33:02;;;;;;;7.72;4.07;;;;;;;;;;12971842;22;20378;-89
2022/10/09 19:38:04;;;;;;;8.30;3.90;;;;;;;;;;12972229;22;20390;-89
2022/10/09 19:43:08;;;;;;;7.30;4.00;;;;;;;;;;12971913;22;20374;-88
2022/10/09 19:48:10;;;;;;;6.68;4.00;;;;;;;;;;12970214;22;20367;-90
2022/10/09 19:53:13;;;;;;;5.43;3.60;;;;;;;;;;12972306;22;20383;-88
2022/10/09 19:58:16;;;;;;;6.10;3.83;;;;;;;;;;12971469;22;20408;-89
2022/10/09 20:03:18;;;;;;;6.27;3.60;;;;;;;;;;12968981;22;20482;-88
2022/10/09 20:08:20;;;;;;;5.90;3.65;;;;;;;;;;12970973;22;20855;-88
2022/10/09 20:13:23;;;;;;;6.15;3.70;;;;;;;;;;12967096;22;20772;-89
2022/10/09 20:18:25;;;;;;;5.90;3.60;;;;;;;;;;12968208;22;20523;-89
2022/10/09 20:23:29;;;;;;;7.30;3.73;;;;;;;;;;12967266;22;22632;-90
2022/10/09 20:28:34;;;;;;;6.22;3.30;;;;;;;;;;12967523;22;20374;-89
2022/10/09 20:33:37;;;;;;;5.80;3.42;;;;;;;;;;12961268;22;20428;-89
2022/10/09 20:38:40;;;;;;;5.30;3.80;;;;;;;;;;12966240;22;20382;-90
2022/10/09 20:43:43;;;;;;;5.00;3.15;;;;;;;;;;12966833;22;20389;-90
2022/10/09 20:48:47;;;;;;;6.38;3.65;;;;;;;;;;12966962;22;20690;-90
2022/10/09 20:53:54;;;;;;;6.25;3.80;;;;;;;;;;12966062;22;20381;-89
2022/10/09 20:58:58;;;;;;;7.30;3.60;;;;;;;;;;12965490;22;20371;-89
2022/10/09 21:04:00;;;;;;;7.00;4.10;;;;;;;;;;12965710;22;20378;-89
2022/10/09 21:09:03;;;;;;;6.93;4.10;;;;;;;;;;12966501;22;20377;-89
2022/10/09 21:14:06;;;;;;;7.35;4.50;;;;;;;;;;12969086;22;20383;-90
2022/10/09 21:19:10;;;;;;;6.10;4.10;;;;;;;;;;12966633;22;20370;-89
2022/10/09 21:24:12;;;;;;;6.63;4.00;;;;;;;;;;12966656;22;20743;-87
2022/10/09 21:29:16;;;;;;;6.75;4.20;;;;;;;;;;12966353;22;20382;-90
2022/10/09 21:34:17;;;;;;;6.97;4.17;;;;;;;;;;12962644;22;20405;-88
2022/10/09 21:39:20;;;;;;;6.78;4.45;;;;;;;;;;12978302;22;20366;-89
2022/10/09 21:44:23;;;;;;;8.10;4.88;;;;;;;;;;12971468;22;20361;-89
2022/10/09 21:49:27;;;;;;;5.35;4.32;;;;;;;;;;12971722;22;20763;-88
2022/10/09 21:54:29;;;;;;;7.30;4.30;;;;;;;;;;12971436;22;20409;-91
2022/10/09 21:59:32;;;;;;;7.07;4.50;;;;;;;;;;12976313;22;20397;-90
2022/10/09 22:04:34;;;;;;;6.23;4.50;;;;;;;;;;12976142;22;20378;-91
2022/10/09 22:09:36;;;;;;;6.53;4.40;;;;;;;;;;12975954;22;20400;-90
2022/10/09 22:14:41;;;;;;;8.85;4.15;;;;;;;;;;12974849;22;20604;-91
2022/10/09 22:19:43;;;;;;;7.57;4.10;;;;;;;;;;12975198;22;20742;-90
2022/10/09 22:24:45;;;;;;;7.93;4.33;;;;;;;;;;12974138;22;20585;-90
2022/10/09 22:29:48;;;;;;;6.50;4.10;;;;;;;;;;12972294;22;20366;-91
2022/10/09 22:34:51;;;;;;;7.07;4.10;;;;;;;;;;12973270;22;20695;-91
2022/10/09 22:39:53;;;;;;;5.90;4.13;;;;;;;;;;12970357;22;20455;-91
2022/10/09 22:44:56;;;;;;;5.45;4.00;;;;;;;;;;12971393;22;20717;-91
2022/10/09 22:49:58;;;;;;;6.28;4.22;;;;;;;;;;12972331;22;20363;-91
2022/10/09 22:55:00;;;;;;;6.27;4.00;;;;;;;;;;12972206;22;20389;-90
2022/10/09 23:00:04;;;;;;;5.60;4.05;;;;;;;;;;12972039;22;20400;-90
2022/10/09 23:05:06;;;;;;;6.72;4.35;;;;;;;;;;12971156;22;20373;-91
2022/10/09 23:10:09;;;;;;;7.47;3.90;;;;;;;;;;12972198;22;20390;-89
2022/10/09 23:15:12;;;;;;;7.40;3.60;;;;;;;;;;12972873;22;20766;-90
2022/10/09 23:20:14;;;;;;;6.13;3.53;;;;;;;;;;12973833;22;20359;-90
2022/10/09 23:25:16;;;;;;;4.07;3.67;;;;;;;;;;12972521;22;20405;-91
2022/10/09 23:30:19;;;;;;;5.68;3.47;;;;;;;;;;12972470;22;20374;-90
2022/10/09 23:35:21;;;;;;;5.60;3.40;;;;;;;;;;12972028;22;20378;-89
2022/10/09 23:40:23;;;;;;;5.07;3.65;;;;;;;;;;12972224;22;20397;-91
2022/10/09 23:45:27;;;;;;;5.00;3.60;;;;;;;;;;12971201;22;20863;-91
2022/10/09 23:50:28;;;;;;;7.17;3.50;;;;;;;;;;12972012;22;20818;-90
2022/10/09 23:55:30;;;;;;;5.37;3.60;;;;;;;;;;12972821;22;20421;-90
